createdAt,value
2023-04-02T00:01:40.717Z,98285.03
2023-04-02T00:04:16.933Z,98292.91
2023-04-02T00:06:46.928Z,98292.91
2023-04-02T00:09:13.345Z,98302.59
2023-04-02T00:11:43.264Z,98304.28
2023-04-02T00:14:21.948Z,98313.00
2023-04-02T00:16:48.623Z,98313.88
2023-04-02T00:19:23.196Z,98317.97
2023-04-02T00:21:51.948Z,98324.88
2023-04-02T00:24:24.967Z,98337.00
2023-04-02T00:26:55.718Z,98339.59
2023-04-02T00:29:30.394Z,98337.84
2023-04-02T00:31:59.831Z,98343.09
2023-04-02T00:34:31.745Z,98350.75
2023-04-02T00:37:01.297Z,98349.00
2023-04-02T00:39:33.102Z,98345.50
2023-04-02T00:42:05.995Z,98356.91
2023-04-02T00:44:44.613Z,98359.47
2023-04-02T00:47:20.354Z,98362.09
2023-04-02T00:49:49.013Z,98365.34
2023-04-02T00:52:18.600Z,98368.78
2023-04-02T00:55:13.906Z,98381.19
2023-04-02T00:57:47.798Z,98383.84
2023-04-02T01:00:22.973Z,98376.03
2023-04-02T01:03:17.295Z,98394.31
2023-04-02T01:05:50.841Z,98393.38
2023-04-02T01:08:25.775Z,98397.81
2023-04-02T01:11:16.241Z,98394.19
2023-04-02T01:13:57.043Z,98402.00
2023-04-02T01:16:33.146Z,98399.22
2023-04-02T01:19:28.589Z,98406.00
2023-04-02T01:22:08.004Z,98416.38
2023-04-02T01:24:37.270Z,98418.09
2023-04-02T01:27:18.406Z,98419.97
2023-04-02T01:29:57.975Z,98423.22
2023-04-02T01:32:31.431Z,98436.09
2023-04-02T01:35:03.927Z,98438.63
2023-04-02T01:37:46.741Z,98442.19
2023-04-02T01:40:19.427Z,98450.81
2023-04-02T01:43:16.972Z,98454.41
2023-04-02T01:45:44.466Z,98461.25
2023-04-02T01:48:21.044Z,98462.63
2023-04-02T01:50:51.371Z,98469.81
2023-04-02T01:53:23.930Z,98471.63
2023-04-02T01:55:56.808Z,98478.50
2023-04-02T01:58:29.211Z,98480.28
2023-04-02T02:01:06.032Z,98483.53
2023-04-02T02:03:34.246Z,98483.63
2023-04-02T02:06:02.316Z,98488.72
2023-04-02T02:08:39.145Z,98504.31
2023-04-02T02:11:14.074Z,98504.34
2023-04-02T02:13:46.632Z,98498.09
2023-04-02T02:16:20.570Z,98505.94
2023-04-02T02:18:53.855Z,98510.28
2023-04-02T02:21:44.475Z,98523.47
2023-04-02T02:24:27.807Z,98530.31
2023-04-02T02:27:21.367Z,98528.72
2023-04-02T02:29:53.988Z,98542.06
2023-04-02T02:32:35.047Z,98550.34
2023-04-02T02:35:27.249Z,98548.34
2023-04-02T02:38:01.924Z,98558.09
2023-04-02T02:40:36.571Z,98556.19
2023-04-02T02:43:06.443Z,98572.75
2023-04-02T02:45:38.886Z,98568.19
2023-04-02T02:48:11.184Z,98575.13
2023-04-02T02:50:38.723Z,98581.34
2023-04-02T02:53:15.722Z,98585.78
2023-04-02T02:55:42.499Z,98583.00
2023-04-02T02:58:31.460Z,98592.56
2023-04-02T03:00:59.095Z,98606.56
2023-04-02T03:03:29.018Z,98596.94
2023-04-02T03:06:09.393Z,98600.50
2023-04-02T03:08:48.634Z,98608.75
2023-04-02T03:11:37.279Z,98609.78
2023-04-02T03:14:13.687Z,98622.06
2023-04-02T03:16:52.809Z,98625.44
2023-04-02T03:19:31.319Z,98627.38
2023-04-02T03:22:07.903Z,98635.03
2023-04-02T03:25:03.407Z,98638.47
2023-04-02T03:27:34.534Z,98645.53
2023-04-02T03:30:25.220Z,98650.66
2023-04-02T03:32:58.120Z,98653.38
2023-04-02T03:35:35.534Z,98663.50
2023-04-02T03:38:14.673Z,98673.00
2023-04-02T03:40:49.713Z,98674.00
2023-04-02T03:43:24.528Z,98684.50
2023-04-02T03:45:56.507Z,98686.88
2023-04-02T03:48:39.349Z,98700.63
2023-04-02T03:51:24.620Z,98700.53
2023-04-02T03:53:51.185Z,98702.28
2023-04-02T03:56:29.506Z,98718.59
2023-04-02T03:59:30.448Z,98720.53
2023-04-02T04:02:02.111Z,98728.16
2023-04-02T04:04:31.649Z,98729.03
2023-04-02T04:07:00.538Z,98737.91
2023-04-02T04:09:34.343Z,98748.22
2023-04-02T04:12:24.026Z,98747.16
2023-04-02T04:14:58.624Z,98751.69
2023-04-02T04:17:41.499Z,98758.78
2023-04-02T04:20:23.584Z,98764.59
2023-04-02T04:22:50.418Z,98763.91
2023-04-02T04:25:25.443Z,98777.19
2023-04-02T04:28:10.647Z,98777.75
2023-04-02T04:30:50.941Z,98789.38
2023-04-02T04:33:34.549Z,98785.06
2023-04-02T04:36:03.210Z,98791.91
2023-04-02T04:38:35.599Z,98800.38
2023-04-02T04:41:04.898Z,98796.09
2023-04-02T04:43:40.185Z,98803.84
2023-04-02T04:46:14.420Z,98801.91
2023-04-02T04:48:52.137Z,98816.94
2023-04-02T04:51:39.425Z,98818.72
2023-04-02T04:54:05.973Z,98816.69
2023-04-02T04:56:33.016Z,98827.09
2023-04-02T04:59:12.764Z,98828.19
2023-04-02T05:01:45.277Z,98831.53
2023-04-02T05:04:27.071Z,98829.91
2023-04-02T05:07:03.567Z,98842.25
2023-04-02T05:09:36.790Z,98841.44
2023-04-02T05:12:06.566Z,98844.22
2023-04-02T05:14:40.865Z,98850.41
2023-04-02T05:17:17.076Z,98855.88
2023-04-02T05:19:49.080Z,98862.00
2023-04-02T05:22:34.920Z,98861.09
2023-04-02T05:25:15.250Z,98879.38
2023-04-02T05:27:52.581Z,98875.47
2023-04-02T05:30:25.022Z,98883.56
2023-04-02T05:33:00.321Z,98892.44
2023-04-02T05:35:34.939Z,98895.91
2023-04-02T05:38:02.366Z,98903.75
2023-04-02T05:40:39.909Z,98914.91
2023-04-02T05:43:10.964Z,98895.50
2023-04-02T05:45:41.699Z,98914.72
2023-04-02T05:48:22.080Z,98912.19
2023-04-02T05:50:54.311Z,98920.72
2023-04-02T05:53:48.983Z,98918.66
2023-04-02T05:56:20.541Z,98924.06
2023-04-02T05:59:00.757Z,98925.94
2023-04-02T06:01:45.390Z,98931.06
2023-04-02T06:04:21.534Z,98933.22
2023-04-02T06:07:01.767Z,98940.91
2023-04-02T06:09:57.308Z,98943.91
2023-04-02T06:12:31.160Z,98942.19
2023-04-02T06:14:57.973Z,98951.34
2023-04-02T06:17:24.705Z,98966.16
2023-04-02T06:19:54.511Z,98966.53
2023-04-02T06:22:24.339Z,98966.53
2023-04-02T06:25:18.210Z,98972.84
2023-04-02T06:27:46.740Z,98984.28
2023-04-02T06:30:41.673Z,98989.28
2023-04-02T06:33:11.776Z,98981.69
2023-04-02T06:35:43.267Z,98987.81
2023-04-02T06:38:19.542Z,98993.34
2023-04-02T06:40:53.322Z,99000.25
2023-04-02T06:43:26.671Z,99007.34
2023-04-02T06:45:56.560Z,99008.19
2023-04-02T06:48:25.407Z,99012.56
2023-04-02T06:51:01.990Z,99014.84
2023-04-02T06:53:34.195Z,99026.03
2023-04-02T06:56:15.813Z,99030.72
2023-04-02T06:58:42.330Z,99027.16
2023-04-02T07:01:16.722Z,99040.47
2023-04-02T07:03:43.720Z,99048.28
2023-04-02T07:06:18.209Z,99057.63
2023-04-02T07:08:45.163Z,99057.75
2023-04-02T07:11:20.922Z,99061.06
2023-04-02T07:13:50.528Z,99066.00
2023-04-02T07:16:24.889Z,99070.34
2023-04-02T07:18:52.796Z,99075.47
2023-04-02T07:21:19.289Z,99081.91
2023-04-02T07:23:45.828Z,99085.53
2023-04-02T07:26:18.247Z,99090.13
2023-04-02T07:28:44.890Z,99089.19
2023-04-02T07:31:27.189Z,99098.84
2023-04-02T07:33:57.994Z,99104.13
2023-04-02T07:36:25.790Z,99112.94
2023-04-02T07:38:52.418Z,99119.63
2023-04-02T07:41:19.678Z,99121.19
2023-04-02T07:43:46.636Z,99127.53
2023-04-02T07:46:16.611Z,99126.41
2023-04-02T07:48:44.170Z,99136.03
2023-04-02T07:51:25.840Z,99141.56
2023-04-02T07:53:55.980Z,99140.59
2023-04-02T07:56:24.957Z,99141.88
2023-04-02T07:58:51.546Z,99140.19
2023-04-02T08:01:26.216Z,99145.50
2023-04-02T08:03:54.907Z,99153.53
2023-04-02T08:06:22.501Z,99156.09
2023-04-02T08:08:49.803Z,99168.41
2023-04-02T08:11:16.873Z,99176.28
2023-04-02T08:13:43.496Z,99168.34
2023-04-02T08:16:10.603Z,99176.41
2023-04-02T08:18:37.519Z,99183.13
2023-04-02T08:21:08.054Z,99185.78
2023-04-02T08:23:35.709Z,99193.59
2023-04-02T08:26:06.056Z,99198.81
2023-04-02T08:28:32.561Z,99189.44
2023-04-02T08:30:59.145Z,99195.47
2023-04-02T08:33:26.199Z,99201.09
2023-04-02T08:35:52.869Z,99209.25
2023-04-02T08:38:21.894Z,99205.03
2023-04-02T08:40:54.631Z,99217.81
2023-04-02T08:43:50.557Z,99219.66
2023-04-02T08:46:26.901Z,99223.41
2023-04-02T08:48:58.127Z,99228.53
2023-04-02T08:51:26.320Z,99234.88
2023-04-02T08:54:01.742Z,99241.03
2023-04-02T08:56:36.815Z,99236.66
2023-04-02T08:59:25.134Z,99246.22
2023-04-02T09:02:19.203Z,99242.63
2023-04-02T09:04:46.038Z,99253.09
2023-04-02T09:07:16.578Z,99253.19
2023-04-02T09:09:46.539Z,99253.31
2023-04-02T09:12:24.215Z,99259.53
2023-04-02T09:15:24.611Z,99264.69
2023-04-02T09:18:11.818Z,99274.97
2023-04-02T09:20:38.574Z,99274.75
2023-04-02T09:23:05.897Z,99280.19
2023-04-02T09:25:33.374Z,99275.94
2023-04-02T09:28:03.481Z,99289.94
2023-04-02T09:30:36.205Z,99294.84
2023-04-02T09:33:07.791Z,99293.47
2023-04-02T09:35:37.815Z,99308.22
2023-04-02T09:38:32.899Z,99302.41
2023-04-02T09:41:05.739Z,99308.53
2023-04-02T09:43:37.259Z,99312.88
2023-04-02T09:46:06.923Z,99312.13
2023-04-02T09:48:39.417Z,99324.19
2023-04-02T09:51:15.401Z,99330.22
2023-04-02T09:53:43.552Z,99329.84
2023-04-02T09:56:11.927Z,99340.41
2023-04-02T09:58:39.465Z,99337.47
2023-04-02T10:01:11.411Z,99344.16
2023-04-02T10:03:37.779Z,99346.94
2023-04-02T10:06:14.243Z,99353.38
2023-04-02T10:08:43.368Z,99355.16
2023-04-02T10:11:18.137Z,99363.06
2023-04-02T10:13:50.976Z,99362.97
2023-04-02T10:16:33.241Z,99367.56
2023-04-02T10:19:07.220Z,99372.97
2023-04-02T10:21:37.303Z,99371.38
2023-04-02T10:24:14.975Z,99377.91
2023-04-02T10:27:11.477Z,99385.81
2023-04-02T10:29:52.569Z,99383.94
2023-04-02T10:32:36.200Z,99389.75
2023-04-02T10:35:19.204Z,99402.88
2023-04-02T10:37:45.803Z,99403.09
2023-04-02T10:40:31.677Z,99398.06
2023-04-02T10:43:24.199Z,99408.84
2023-04-02T10:46:14.371Z,99412.09
2023-04-02T10:49:17.999Z,99416.56
2023-04-02T10:51:51.518Z,99418.44
2023-04-02T10:54:28.052Z,99420.25
2023-04-02T10:57:08.985Z,99420.34
2023-04-02T10:59:39.914Z,99418.88
2023-04-02T11:02:24.626Z,99425.03
2023-04-02T11:04:57.541Z,99427.19
2023-04-02T11:07:30.885Z,99425.66
2023-04-02T11:09:59.778Z,99434.34
2023-04-02T11:12:54.831Z,99434.34
2023-04-02T11:15:22.075Z,99432.75
2023-04-02T11:17:49.307Z,99441.75
2023-04-02T11:20:56.220Z,99450.66
2023-04-02T11:23:26.615Z,99442.53
2023-04-02T11:26:28.005Z,99449.75
2023-04-02T11:29:13.148Z,99458.47
2023-04-02T11:31:39.782Z,99451.31
2023-04-02T11:34:06.388Z,99460.69
2023-04-02T11:37:08.217Z,99466.97
2023-04-02T11:39:53.475Z,99464.78
2023-04-02T11:42:24.968Z,99477.00
2023-04-02T11:44:53.093Z,99483.78
2023-04-02T11:47:20.950Z,99487.16
2023-04-02T11:49:57.805Z,99482.41
2023-04-02T11:52:26.340Z,99491.41
2023-04-02T11:54:58.827Z,99489.81
2023-04-02T11:57:50.795Z,99494.47
2023-04-02T12:00:48.468Z,99492.53
2023-04-02T12:03:33.787Z,99500.31
2023-04-02T12:06:42.295Z,99500.97
2023-04-02T12:09:27.998Z,99505.38
2023-04-02T12:12:15.745Z,99501.66
2023-04-02T12:14:45.518Z,99517.94
2023-04-02T12:17:35.469Z,99516.63
2023-04-02T12:20:09.171Z,99526.41
2023-04-02T12:22:47.293Z,99526.56
2023-04-02T12:25:31.354Z,99524.41
2023-04-02T12:28:09.722Z,99531.22
2023-04-02T12:30:38.336Z,99529.28
2023-04-02T12:33:38.669Z,99534.28
2023-04-02T12:36:28.997Z,99535.59
2023-04-02T12:38:57.630Z,99530.56
2023-04-02T12:41:30.200Z,99538.44
2023-04-02T12:44:02.651Z,99538.31
2023-04-02T12:46:35.077Z,99538.38
2023-04-02T12:49:20.649Z,99542.00
2023-04-02T12:51:51.764Z,99546.28
2023-04-02T12:54:20.621Z,99555.28
2023-04-02T12:56:48.908Z,99552.34
2023-04-02T12:59:36.415Z,99543.31
2023-04-02T13:02:16.264Z,99545.66
2023-04-02T13:04:53.548Z,99550.88
2023-04-02T13:07:23.219Z,99545.63
2023-04-02T13:09:52.972Z,99536.06
2023-04-02T13:12:32.437Z,99545.56
2023-04-02T13:15:05.771Z,99537.56
2023-04-02T13:17:49.247Z,99544.75
2023-04-02T13:20:31.114Z,99539.63
2023-04-02T13:22:59.404Z,99546.28
2023-04-02T13:25:37.151Z,99534.94
2023-04-02T13:28:03.641Z,99538.69
2023-04-02T13:30:30.489Z,99540.69
2023-04-02T13:32:56.986Z,99534.56
2023-04-02T13:35:23.582Z,99538.91
2023-04-02T13:37:50.221Z,99544.78
2023-04-02T13:40:19.119Z,99538.59
2023-04-02T13:42:49.693Z,99545.81
2023-04-02T13:45:25.382Z,99545.16
2023-04-02T13:47:52.180Z,99543.78
2023-04-02T13:50:23.893Z,99548.25
2023-04-02T13:52:51.489Z,99551.88
2023-04-02T13:55:20.937Z,99562.78
2023-04-02T13:57:47.495Z,99557.22
2023-04-02T14:00:14.313Z,99553.97
2023-04-02T14:02:46.062Z,99557.53
2023-04-02T14:05:18.749Z,99558.03
2023-04-02T14:08:16.558Z,99566.63
2023-04-02T14:11:07.506Z,99568.28
2023-04-02T14:13:43.166Z,99565.03
2023-04-02T14:16:37.657Z,99576.28
2023-04-02T14:19:43.094Z,99570.78
2023-04-02T14:22:35.929Z,99570.53
2023-04-02T14:25:06.157Z,99563.09
2023-04-02T14:27:54.166Z,99583.47
2023-04-02T14:30:32.993Z,99578.88
2023-04-02T14:33:09.275Z,99583.84
2023-04-02T14:35:38.303Z,99582.97
2023-04-02T14:38:23.169Z,99579.50
2023-04-02T14:40:50.235Z,99592.06
2023-04-02T14:43:25.332Z,99581.56
2023-04-02T14:46:01.735Z,99583.16
2023-04-02T14:48:59.243Z,99593.41
2023-04-02T14:51:40.664Z,99606.78
2023-04-02T14:54:17.659Z,99587.84
2023-04-02T14:56:55.411Z,99593.16
2023-04-02T14:59:34.040Z,99586.78
2023-04-02T15:02:09.219Z,99589.44
2023-04-02T15:04:43.384Z,99591.38
2023-04-02T15:07:25.577Z,99601.88
2023-04-02T15:10:06.559Z,99595.88
2023-04-02T15:12:37.711Z,99600.19
2023-04-02T15:15:38.908Z,99607.91
2023-04-02T15:18:11.007Z,99605.38
2023-04-02T15:20:52.463Z,99605.41
2023-04-02T15:23:31.276Z,99611.63
2023-04-02T15:26:12.454Z,99622.75
2023-04-02T15:28:59.218Z,99623.50
2023-04-02T15:31:28.131Z,99631.44
2023-04-02T15:34:18.940Z,99635.00
2023-04-02T15:37:00.933Z,99639.09
2023-04-02T15:39:46.084Z,99636.34
2023-04-02T15:42:23.790Z,99648.47
2023-04-02T15:45:02.214Z,99645.78
2023-04-02T15:47:41.279Z,99653.72
2023-04-02T15:50:08.086Z,99659.88
2023-04-02T15:52:58.993Z,99652.84
2023-04-02T15:55:59.718Z,99656.34
2023-04-02T15:58:32.119Z,99661.53
2023-04-02T16:01:11.545Z,99663.28
2023-04-02T16:04:12.255Z,99672.06
2023-04-02T16:07:25.102Z,99669.66
2023-04-02T16:09:54.631Z,99669.66
2023-04-02T16:12:21.629Z,99678.22
2023-04-02T16:14:49.544Z,99672.25
2023-04-02T16:17:40.708Z,99671.34
2023-04-02T16:20:27.903Z,99684.38
2023-04-02T16:23:04.818Z,99679.19
2023-04-02T16:25:38.811Z,99686.03
2023-04-02T16:28:19.965Z,99687.44
2023-04-02T16:31:28.538Z,99685.19
2023-04-02T16:34:05.849Z,99685.88
2023-04-02T16:37:05.011Z,99698.75
2023-04-02T16:39:55.568Z,99690.56
2023-04-02T16:42:40.875Z,99693.22
2023-04-02T16:45:23.586Z,99700.34
2023-04-02T16:47:54.230Z,99705.38
2023-04-02T16:50:58.959Z,99711.84
2023-04-02T16:54:01.514Z,99713.47
2023-04-02T16:56:41.130Z,99716.81
2023-04-02T16:59:35.364Z,99716.81
2023-04-02T17:02:21.447Z,99733.25
2023-04-02T17:04:58.501Z,99724.28
2023-04-02T17:07:30.795Z,99732.28
2023-04-02T17:10:34.855Z,99736.44
2023-04-02T17:13:27.849Z,99733.84
2023-04-02T17:15:59.837Z,99752.22
2023-04-02T17:18:26.459Z,99747.50
2023-04-02T17:21:04.849Z,99748.53
2023-04-02T17:23:38.431Z,99753.97
2023-04-02T17:26:11.244Z,99761.78
2023-04-02T17:28:39.493Z,99754.53
2023-04-02T17:31:17.270Z,99764.88
2023-04-02T17:33:43.794Z,99764.06
2023-04-02T17:36:29.912Z,99774.25
2023-04-02T17:39:08.435Z,99776.78
2023-04-02T17:41:49.458Z,99788.91
2023-04-02T17:44:28.108Z,99786.28
2023-04-02T17:47:08.659Z,99787.31
2023-04-02T17:49:47.285Z,99791.63
2023-04-02T17:52:37.606Z,99789.00
2023-04-02T17:55:27.951Z,99810.00
2023-04-02T17:58:05.109Z,99813.47
2023-04-02T18:00:53.411Z,99817.75
2023-04-02T18:03:27.441Z,99822.75
2023-04-02T18:06:18.910Z,99819.09
2023-04-02T18:09:12.015Z,99818.22
2023-04-02T18:12:03.916Z,99831.38
2023-04-02T18:15:02.929Z,99831.94
2023-04-02T18:17:52.829Z,99841.09
2023-04-02T18:20:27.501Z,99835.31
2023-04-02T18:22:59.636Z,99839.81
2023-04-02T18:25:55.358Z,99848.41
2023-04-02T18:28:33.552Z,99857.97
2023-04-02T18:31:13.709Z,99863.03
2023-04-02T18:33:52.019Z,99867.44
2023-04-02T18:36:27.616Z,99873.22
2023-04-02T18:39:32.918Z,99875.16
2023-04-02T18:42:10.016Z,99877.66
2023-04-02T18:44:54.545Z,99881.88
2023-04-02T18:47:35.092Z,99885.09
2023-04-02T18:50:18.143Z,99886.63
2023-04-02T18:52:45.841Z,99886.97
2023-04-02T18:55:19.876Z,99895.69
2023-04-02T18:57:52.194Z,99912.75
2023-04-02T19:00:28.678Z,99909.28
2023-04-02T19:02:59.268Z,99912.50
2023-04-02T19:05:35.112Z,99910.22
2023-04-02T19:08:19.557Z,99922.34
2023-04-02T19:10:51.202Z,99914.28
2023-04-02T19:13:19.850Z,99921.19
2023-04-02T19:16:14.966Z,99928.69
2023-04-02T19:18:41.449Z,99935.84
2023-04-02T19:21:19.922Z,99938.47
2023-04-02T19:24:19.364Z,99941.63
2023-04-02T19:26:51.497Z,99938.22
2023-04-02T19:29:46.382Z,99941.78
2023-04-02T19:32:31.913Z,99947.38
2023-04-02T19:35:07.421Z,99956.47
2023-04-02T19:37:43.680Z,99954.84
2023-04-02T19:40:23.478Z,99953.63
2023-04-02T19:42:52.640Z,99959.88
2023-04-02T19:45:24.986Z,99969.41
2023-04-02T19:47:51.568Z,99973.03
2023-04-02T19:50:18.094Z,99966.63
2023-04-02T19:52:44.603Z,99968.00
2023-04-02T19:55:11.152Z,99973.25
2023-04-02T19:57:37.881Z,99982.63
2023-04-02T20:00:05.112Z,99983.41
2023-04-02T20:02:31.641Z,99972.03
2023-04-02T20:04:58.159Z,99989.66
2023-04-02T20:07:24.666Z,99988.75
2023-04-02T20:09:51.152Z,99992.22
2023-04-02T20:12:17.647Z,99983.53
2023-04-02T20:14:44.132Z,99990.38
2023-04-02T20:17:10.776Z,99996.34
2023-04-02T20:19:37.255Z,99997.59
2023-04-02T20:22:03.941Z,99999.94
2023-04-02T20:24:30.549Z,100001.56
2023-04-02T20:26:57.053Z,100004.84
2023-04-02T20:29:27.677Z,100006.28
2023-04-02T20:31:54.199Z,100006.75
2023-04-02T20:34:21.107Z,100007.66
2023-04-02T20:36:47.728Z,100014.50
2023-04-02T20:39:19.236Z,100017.78
2023-04-02T20:41:48.716Z,100023.59
2023-04-02T20:44:15.886Z,100025.31
2023-04-02T20:46:42.441Z,100033.16
2023-04-02T20:49:09.054Z,100038.13
2023-04-02T20:51:35.589Z,100038.94
2023-04-02T20:54:02.648Z,100051.34
2023-04-02T20:56:29.423Z,100046.72
2023-04-02T20:58:55.972Z,100049.63
2023-04-02T21:01:24.935Z,100045.09
2023-04-02T21:03:56.976Z,100053.34
2023-04-02T21:06:25.545Z,100056.22
2023-04-02T21:08:54.297Z,100052.59
2023-04-02T21:11:23.389Z,100052.00
2023-04-02T21:13:53.545Z,100055.16
2023-04-02T21:16:31.699Z,100065.22
2023-04-02T21:19:03.724Z,100063.19
2023-04-02T21:21:36.716Z,100070.88
2023-04-02T21:24:06.482Z,100073.69
2023-04-02T21:26:38.068Z,100077.00
2023-04-02T21:29:05.868Z,100071.69
2023-04-02T21:31:38.118Z,100078.72
2023-04-02T21:34:06.076Z,100083.13
2023-04-02T21:36:40.075Z,100086.94
2023-04-02T21:39:09.530Z,100090.91
2023-04-02T21:41:42.546Z,100083.72
2023-04-02T21:44:15.806Z,100089.84
2023-04-02T21:46:43.147Z,100095.53
2023-04-02T21:49:16.737Z,100102.41
2023-04-02T21:51:45.676Z,100104.63
2023-04-02T21:54:18.958Z,100105.22
2023-04-02T21:56:46.707Z,100111.47
2023-04-02T21:59:18.179Z,100107.97
2023-04-02T22:01:48.201Z,100100.13
2023-04-02T22:04:20.761Z,100111.53
2023-04-02T22:06:48.000Z,100112.13
2023-04-02T22:09:21.160Z,100118.09
2023-04-02T22:11:54.466Z,100115.09
2023-04-02T22:14:24.598Z,100117.47
2023-04-02T22:16:54.985Z,100120.00
2023-04-02T22:19:21.705Z,100124.66
2023-04-02T22:21:48.139Z,100123.09
2023-04-02T22:24:18.620Z,100120.31
2023-04-02T22:26:46.065Z,100119.44
2023-04-02T22:29:12.637Z,100128.16
2023-04-02T22:31:39.328Z,100136.25
2023-04-02T22:34:10.150Z,100129.22
2023-04-02T22:36:36.668Z,100134.44
2023-04-02T22:39:06.775Z,100137.88
2023-04-02T22:41:33.734Z,100138.94
2023-04-02T22:44:01.594Z,100142.13
2023-04-02T22:46:29.408Z,100143.50
2023-04-02T22:49:08.364Z,100143.13
2023-04-02T22:51:40.000Z,100149.47
2023-04-02T22:54:06.872Z,100148.00
2023-04-02T22:56:35.243Z,100149.84
2023-04-02T22:59:01.744Z,100155.91
2023-04-02T23:01:31.659Z,100160.50
2023-04-02T23:03:58.538Z,100156.88
2023-04-02T23:06:29.265Z,100158.09
2023-04-02T23:08:55.950Z,100159.09
2023-04-02T23:11:25.936Z,100158.50
2023-04-02T23:13:54.295Z,100167.47
2023-04-02T23:16:22.599Z,100170.25
2023-04-02T23:18:49.804Z,100169.75
2023-04-02T23:21:18.409Z,100165.34
2023-04-02T23:23:47.838Z,100158.22
2023-04-02T23:26:21.178Z,100165.06
2023-04-02T23:28:48.618Z,100161.66
2023-04-02T23:31:20.960Z,100166.97
2023-04-02T23:33:47.472Z,100173.19
2023-04-02T23:36:20.510Z,100166.88
2023-04-02T23:38:49.817Z,100177.06
2023-04-02T23:41:17.533Z,100171.59
2023-04-02T23:43:44.103Z,100176.91
2023-04-02T23:46:10.756Z,100170.19
2023-04-02T23:48:37.573Z,100170.03
2023-04-02T23:51:08.841Z,100166.16
2023-04-02T23:53:35.870Z,100170.13
2023-04-02T23:56:02.448Z,100169.88
2023-04-02T23:58:29.450Z,100171.13
